LICCLIRA

Guest
Details From LICC - Catania Fontanarossa
To LIRA - CIAMPINO
Flight Number -
Tags generated
Created
Modified
Stats Distance 285 nm / 527 km
Max Altitude 32,700 ft / 9,967 m
Waypoints 5
Social Downloads 0
Likes 0
Share VATSIM

Download

Looking for another format? Having issues loading an existing format? Contact us
Advertisement - Login to hide

Notes

Basic altitude profile: - Ascent Rate: 2500ft/min - Ascent Speed: 250kts - Cruise Altitude: 35000ft - Cruise Speed: 420kts - Descent Rate: 1500ft/min - Descent Speed: 250kts Options: - Use NATs: yes - Use PACOTS: yes - Use low airways: yes - Use high airways: yes

Route

LICC VAKOR UL165 TAGEL LIRA

ID Type Via Altitude Latitude Longitude Leg Dist Tot Dist Heading (true) Name
O LICC APT - 0 ft / 0 m 37.46678˚ 15.06640˚ - 0 nm - Catania Fontanarossa
VAKOR FIX - 32,100 ft / 9,784 m 38.83611˚ 14.15361˚ 92 nm 92 nm 333° / 332° -
AMANO FIX UL165 (AWY-HI) 32,700 ft / 9,967 m 39.42167˚ 13.79667˚ 38 nm 131 nm 335° / 335° -
TAGEL FIX UL165 (AWY-HI) 20,500 ft / 6,248 m 40.29778˚ 13.31111˚ 57 nm 188 nm 337° / 337° -
O LIRA APT - 0 ft / 0 m 41.79923˚ 12.59492˚ 95 nm 284 nm 340° / 340° CIAMPINO

Altitude Profile

Advertisement - Login to hide

Weather


0- 5 10 15 20 25 30 35+ Temperature / ° C

Clouds and Precipitation
Forecast for 2017-12-12 06:00 UTC. Updated 2 minutes ago

Ground ~20,000 ft ~40,000 ft Winds

LICC

Details ICAO LICC (CTA)
Name Catania Fontanarossa
Region Italy
Timezone Europe/Rome (UTC+1.0)
Stats Elevation 39 ft / 12 m (AMSL)
Location 37.466779° 15.066401°
Runways 1
Magnetic Variation 3.215° E

METAR

LICC 120050Z 24004KT 9999 FEW030 07/06 Q1018

Decode

TAF

TAF LICC 112300Z 1200/1224 25006KT 9999 SCT030

Decode

Departure Runways

ID Width Length Bearing (true) Bearing (mag) Surface Threshold Offset Overrun Length
08 148 ft / 45 m 7,985 ft / 2,434 m 83.94° 80.73° Asphalt 312 ft / 95 m 0 ft / 0 m
26 148 ft / 45 m 7,985 ft / 2,434 m 263.95° 260.74° Asphalt 279 ft / 85 m 0 ft / 0 m

LIRA

Details ICAO LIRA (CIA)
Name CIAMPINO
Region Italy
Timezone Europe/Rome (UTC+1.0)
Stats Elevation 427 ft / 130 m (AMSL)
Location 41.799228° 12.594917°
Runways 1
Magnetic Variation 3.057° E

METAR

LIRA 120050Z 16018G28KT 9999 BKN030 15/11 Q1010

Decode

TAF

TAF LIRA 112300Z 1200/1224 17015G25KT 8000 BKN020 BECMG 1206/1208 VRB06KT TEMPO 1212/1224 SHRA

Decode

Destination Runways

ID Width Length Bearing (true) Bearing (mag) Surface Threshold Offset Overrun Length
15 154 ft / 47 m 7,246 ft / 2,209 m 152.79° 149.73° Asphalt 0 ft / 0 m 0 ft / 0 m
33 154 ft / 47 m 7,246 ft / 2,209 m 332.80° 329.74° Asphalt 0 ft / 0 m 0 ft / 0 m

Approach Navaids

Runway Type Ident Frequency Range Bearing (true) Bearing (mag) Slope Elevation
15 Localiser CIA 109.90 MHz 18 nm / 33 km 152.81° 149.75° - 426 ft / 130 m (AMSL)
15 Glidescope CIA 109.90 MHz 10 nm / 19 km 152.79° 149.74° 3.00° 384 ft / 117 m (AMSL)

Popular Alternatives